»·PEaware :: SKW3134 KPHX-KSBP

SKW3134 :: KPHX-KSBP

FLIGHT INFORMATION

Flight Status: Arrived
Operator:
SkyWest Airlines
More flights by this operator :: More flights under this callsign
Pilot: Jack B. (5846)
Aircraft: CANADAIR CL-600 CRJ-200
(CRJ2)
More flights by this aircraft type
Origin: KPHX Phoenix Sky Harbor Intl
United States
Destination: KSBP San Luis Co Regl
United States
More flights between these airports :: More routes between these airports
Route: +KEENS2 HRRBR CURIV J212 DECAS PSP LAX RZS MQO
File this flight plan on PilotEdge
Remarks:
Altitude:
(Current/Filed)
300ft
Speed:
(Current/Filed)
320kts
Departed: 02-Aug-19 05:36 PM
Arrived: 02-Aug-19 06:50 PM
Distance/Time
Traveled:
441nm/1:14
Distance/Time
To Go:
Arrived

Flight Plot

Page will automatically refresh every two minutes.

Flight plan parsing failed; only flown route is shown


Map Options




Map Legend


Flown Route
Filed Route
Departure Airport
Arrival Airport
Navaid (VOR, NDB)
Fix

Horizontal Profiles

Position Reports

Time Latitude Longitude Heading Altitude Ground
Speed
02-Aug-19 17:17 33.436536 -111.993205 180 1127ft 0kts
02-Aug-19 17:18 33.436536 -111.993205 180 1127ft 0kts
02-Aug-19 17:19 33.436536 -111.993205 180 1127ft 0kts
02-Aug-19 17:20 33.436536 -111.993205 180 1127ft 0kts
02-Aug-19 17:21 33.436536 -111.993205 180 1127ft 0kts
02-Aug-19 17:22 33.436536 -111.993205 180 1127ft 0kts
02-Aug-19 17:23 33.436536 -111.993205 180 1127ft 0kts
02-Aug-19 17:24 33.436536 -111.993205 180 1127ft 0kts
02-Aug-19 17:25 33.436536 -111.993205 180 1127ft 0kts
02-Aug-19 17:26 33.436631 -111.993205 180 1127ft 0kts
02-Aug-19 17:27 33.437098 -111.992991 356 1129ft 0kts
02-Aug-19 17:28 33.437098 -111.992991 356 1129ft 0kts
02-Aug-19 17:29 33.437946 -111.993011 358 1132ft 0kts
02-Aug-19 17:30 33.438996 -111.992783 62 1136ft 3kts
02-Aug-19 17:31 33.439287 -111.992314 25 1137ft 3kts
02-Aug-19 17:32 33.439850 -111.992262 0 1140ft 0kts
02-Aug-19 17:33 33.440835 -111.992776 265 1142ft 0kts
02-Aug-19 17:34 33.440835 -111.992776 265 1142ft 0kts
02-Aug-19 17:35 33.440798 -112.007371 272 1127ft 133kts
02-Aug-19 17:36 33.432806 -112.057533 250 2509ft 173kts
02-Aug-19 17:37 33.414654 -112.117942 249 4015ft 221kts
02-Aug-19 17:38 33.393007 -112.194354 266 5904ft 257kts
02-Aug-19 17:39 33.403308 -112.281325 279 8150ft 270kts
02-Aug-19 17:40 33.416386 -112.371049 280 10212ft 279kts
02-Aug-19 17:41 33.430062 -112.463994 280 12075ft 289kts
02-Aug-19 17:42 33.444042 -112.559288 280 13841ft 294kts
02-Aug-19 17:43 33.450704 -112.657672 271 15394ft 301kts
02-Aug-19 17:44 33.452170 -112.759579 271 16700ft 312kts
02-Aug-19 17:45 33.464663 -112.862932 281 18010ft 317kts
02-Aug-19 17:46 33.483794 -112.966275 281 19305ft 321kts
02-Aug-19 17:47 33.503227 -113.071023 280 20602ft 323kts
02-Aug-19 17:48 33.523485 -113.179309 279 21278ft 342kts
02-Aug-19 17:49 33.544153 -113.291465 279 22235ft 348kts
02-Aug-19 17:50 33.564948 -113.405116 279 23109ft 354kts
02-Aug-19 17:51 33.586119 -113.521056 279 23906ft 359kts
02-Aug-19 17:52 33.608005 -113.638745 279 24630ft 364kts
02-Aug-19 17:53 33.630042 -113.757739 279 25292ft 369kts
02-Aug-19 17:54 33.652315 -113.878675 279 25893ft 373kts
02-Aug-19 17:55 33.674709 -114.000810 279 26447ft 378kts
02-Aug-19 17:56 33.697320 -114.124341 279 26973ft 381kts
02-Aug-19 17:57 33.720167 -114.249192 278 27460ft 385kts
02-Aug-19 17:58 33.742837 -114.375041 278 27912ft 388kts
02-Aug-19 17:59 33.765575 -114.502099 278 28332ft 392kts
02-Aug-19 18:00 33.778102 -114.631694 270 28712ft 391kts
02-Aug-19 18:01 33.785681 -114.762222 270 29079ft 394kts
02-Aug-19 18:02 33.793127 -114.894053 270 29423ft 397kts
02-Aug-19 18:03 33.800470 -115.026591 270 29730ft 400kts
02-Aug-19 18:04 33.807635 -115.154662 270 29804ft 408kts
02-Aug-19 18:05 33.815066 -115.292183 269 29860ft 416kts
02-Aug-19 18:06 33.822378 -115.432413 269 29970ft 423kts
02-Aug-19 18:07 33.829616 -115.574490 270 29993ft 431kts
02-Aug-19 18:08 33.836821 -115.719193 270 29983ft 438kts
02-Aug-19 18:09 33.843990 -115.866713 270 29913ft 446kts
02-Aug-19 18:10 33.851096 -116.016642 270 29844ft 453kts
02-Aug-19 18:11 33.858263 -116.166661 269 29760ft 459kts
02-Aug-19 18:12 33.865220 -116.319578 269 29779ft 461kts
02-Aug-19 18:13 33.871761 -116.473645 269 29810ft 463kts
02-Aug-19 18:14 33.877717 -116.628702 269 29827ft 465kts
02-Aug-19 18:15 33.883479 -116.784059 269 29846ft 466kts
02-Aug-19 18:16 33.889055 -116.939623 269 29874ft 467kts
02-Aug-19 18:17 33.894435 -117.095288 269 29943ft 466kts
02-Aug-19 18:18 33.899761 -117.245892 268 29955ft 466kts
02-Aug-19 18:19 33.904777 -117.401925 268 29941ft 467kts
02-Aug-19 18:20 33.909585 -117.557904 268 29939ft 467kts
02-Aug-19 18:21 33.914176 -117.713451 268 29938ft 467kts
02-Aug-19 18:22 33.918593 -117.869477 268 29938ft 467kts
02-Aug-19 18:23 33.922795 -118.025031 268 29938ft 467kts
02-Aug-19 18:24 33.927069 -118.180573 268 29947ft 466kts
02-Aug-19 18:25 33.930933 -118.335973 268 29963ft 466kts
02-Aug-19 18:26 33.953570 -118.487952 301 29968ft 478kts
02-Aug-19 18:27 34.018187 -118.626488 294 29966ft 476kts
02-Aug-19 18:28 34.079486 -118.767249 294 29967ft 477kts
02-Aug-19 18:30 34.140747 -118.908582 294 29966ft 478kts
02-Aug-19 18:31 34.202438 -119.051524 294 29968ft 480kts
02-Aug-19 18:32 34.263816 -119.193580 293 29745ft 488kts
02-Aug-19 18:33 34.325798 -119.338276 294 28552ft 471kts
02-Aug-19 18:34 34.384626 -119.476337 294 27363ft 467kts
02-Aug-19 18:35 34.444887 -119.618246 294 26198ft 467kts
02-Aug-19 18:36 34.504735 -119.759832 296 25029ft 473kts
02-Aug-19 18:37 34.587389 -119.873608 311 23253ft 465kts
02-Aug-19 18:38 34.671235 -119.984137 312 20440ft 421kts
02-Aug-19 18:39 34.745943 -120.082966 312 17648ft 384kts
02-Aug-19 18:40 34.815224 -120.174282 312 14980ft 352kts
02-Aug-19 18:41 34.877709 -120.257318 312 12733ft 319kts
02-Aug-19 18:42 34.934058 -120.332429 312 10734ft 291kts
02-Aug-19 18:43 34.985886 -120.401668 312 8786ft 272kts
02-Aug-19 18:44 35.046062 -120.448000 331 6988ft 251kts
02-Aug-19 18:45 35.105524 -120.487261 331 5294ft 235kts
02-Aug-19 18:46 35.160659 -120.522617 322 3754ft 213kts
02-Aug-19 18:46 35.191619 -120.560963 302 2403ft 173kts
02-Aug-19 18:48 35.220286 -120.611041 305 830ft 141kts
02-Aug-19 18:49 35.239419 -120.644451 304 176ft 58kts
02-Aug-19 18:49 35.242702 -120.648397 116 160ft 13kts
02-Aug-19 18:51 35.239680 -120.643008 124 181ft 19kts
02-Aug-19 18:51 35.238997 -120.641415 0 188ft 0kts
02-Aug-19 18:52 35.238997 -120.641415 0 188ft 0kts
02-Aug-19 18:54 35.238997 -120.641415 0 188ft 0kts
02-Aug-19 18:54 35.238997 -120.641415 0 188ft 0kts
02-Aug-19 18:55 35.238997 -120.641415 0 188ft 0kts

Navigation Log

Ident Type
Flight plan parsing failed, navigation log unavailable